Time;durP1;ratioP1;P1;durP2;ratioP2;P2;SDS_P1;SDS_P2;PMS_P1;PMS_P2;Temp;Humidity;BMP_temperature;BMP_pressure;BME280_temperature;BME280_humidity;BME280_pressure;Samples;Min_cycle;Max_cycle;Signal;HPM_P1;HPM_P2
2023/09/09 00:01:35;;;;;;;10.25;5.57;;;18.30;99.90;;;;;;5005053;28;20022;-61
2023/09/09 00:04:03;;;;;;;8.80;5.60;;;18.30;99.90;;;;;;5007949;28;20097;-65
2023/09/09 00:06:28;;;;;;;6.78;5.05;;;18.30;99.90;;;;;;5002100;28;20026;-66
2023/09/09 00:08:54;;;;;;;8.35;5.38;;;18.30;99.90;;;;;;5006800;28;20038;-65
2023/09/09 00:11:19;;;;;;;8.35;5.15;;;18.30;99.90;;;;;;5001778;28;20042;-66
2023/09/09 00:13:45;;;;;;;7.50;5.75;;;18.30;99.90;;;;;;5009700;28;20415;-66
2023/09/09 00:16:11;;;;;;;9.10;5.53;;;18.20;99.90;;;;;;5001699;28;20084;-65
2023/09/09 00:18:37;;;;;;;12.25;5.15;;;18.20;99.90;;;;;;5005803;28;20026;-65
2023/09/09 00:21:03;;;;;;;8.57;5.43;;;18.10;99.90;;;;;;4996057;28;20060;-65
2023/09/09 00:23:28;;;;;;;7.05;5.38;;;18.10;99.90;;;;;;4997394;28;20091;-65
2023/09/09 00:25:54;;;;;;;6.57;4.72;;;18.20;99.90;;;;;;5007754;28;20495;-64
2023/09/09 00:28:20;;;;;;;6.85;4.93;;;18.20;99.90;;;;;;5004647;28;20095;-65
2023/09/09 00:30:46;;;;;;;8.35;5.70;;;18.20;99.90;;;;;;5004791;28;20030;-65
2023/09/09 00:33:11;;;;;;;6.63;4.90;;;18.10;99.90;;;;;;5000446;28;20068;-65
2023/09/09 00:35:39;;;;;;;14.75;6.03;;;18.00;99.90;;;;;;5006990;28;20022;-64
2023/09/09 00:38:06;;;;;;;9.95;5.72;;;18.00;99.90;;;;;;4998110;28;20067;-65
2023/09/09 00:40:32;;;;;;;8.15;6.03;;;18.00;99.90;;;;;;4995664;28;20113;-65
2023/09/09 00:42:58;;;;;;;7.07;5.28;;;18.00;99.90;;;;;;5006066;28;20032;-65
2023/09/09 00:45:25;;;;;;;11.13;6.50;;;18.00;99.90;;;;;;5007333;28;20038;-65
2023/09/09 00:47:50;;;;;;;6.88;4.93;;;17.90;99.90;;;;;;5007535;28;20026;-68
2023/09/09 00:50:16;;;;;;;7.35;5.20;;;17.90;99.90;;;;;;4998976;28;20030;-65
2023/09/09 00:52:42;;;;;;;10.98;6.00;;;17.90;99.90;;;;;;5005834;28;20044;-65
2023/09/09 00:55:10;;;;;;;9.90;5.50;;;17.90;99.90;;;;;;4998608;28;20697;-65
2023/09/09 00:57:36;;;;;;;8.57;5.15;;;17.90;99.90;;;;;;5005465;28;20037;-65
2023/09/09 01:00:09;;;;;;;9.05;5.72;;;17.80;99.90;;;;;;4998798;28;20034;-65
2023/09/09 01:02:38;;;;;;;10.25;6.65;;;17.90;99.90;;;;;;4998133;28;20030;-65
2023/09/09 01:05:08;;;;;;;7.07;5.10;;;17.90;99.90;;;;;;5006040;28;20033;-65
2023/09/09 01:07:47;;;;;;;9.23;4.63;;;17.90;99.90;;;;;;5000167;28;20054;-63
2023/09/09 01:10:14;;;;;;;8.43;6.00;;;17.80;99.90;;;;;;5002952;28;20022;-64
2023/09/09 01:12:42;;;;;;;9.95;5.47;;;17.80;99.90;;;;;;5010355;28;20054;-66
2023/09/09 01:15:08;;;;;;;8.88;6.03;;;17.80;99.90;;;;;;5008871;28;20091;-65
2023/09/09 01:17:35;;;;;;;9.18;5.28;;;17.80;99.90;;;;;;5002678;28;20041;-64
2023/09/09 01:20:36;;;;;;;10.85;5.30;;;17.70;99.90;;;;;;5006226;28;20022;-65
2023/09/09 01:22:55;;;;;;;7.90;5.45;;;17.80;99.90;;;;;;4997910;28;20037;-64
2023/09/09 01:25:21;;;;;;;8.30;5.22;;;17.80;99.90;;;;;;5006194;28;20036;-65
2023/09/09 01:27:46;;;;;;;8.52;5.70;;;17.80;99.90;;;;;;5003185;28;20030;-65
2023/09/09 01:30:12;;;;;;;6.57;4.78;;;17.70;99.90;;;;;;5003897;28;20352;-64
2023/09/09 01:32:38;;;;;;;10.90;4.60;;;17.70;99.90;;;;;;5004465;28;20034;-65
2023/09/09 01:35:04;;;;;;;7.68;5.15;;;17.80;99.90;;;;;;5006762;28;20021;-64
2023/09/09 01:37:30;;;;;;;6.72;4.43;;;17.80;99.90;;;;;;5002213;28;20160;-64
2023/09/09 01:39:56;;;;;;;5.65;4.22;;;17.90;99.90;;;;;;4999943;28;20013;-65
2023/09/09 01:42:22;;;;;;;6.13;4.25;;;18.00;99.90;;;;;;4998541;28;20161;-64
2023/09/09 01:44:47;;;;;;;5.35;3.97;;;18.20;99.90;;;;;;4998762;28;20030;-65
2023/09/09 01:47:16;;;;;;;7.80;4.90;;;18.10;99.90;;;;;;4999692;28;20478;-63
2023/09/09 01:49:44;;;;;;;6.82;5.15;;;18.20;99.90;;;;;;5003970;28;20756;-65
2023/09/09 01:52:10;;;;;;;8.70;4.70;;;18.30;99.90;;;;;;5005349;28;20049;-64
2023/09/09 01:54:35;;;;;;;9.85;4.72;;;18.30;99.90;;;;;;5006209;28;20489;-64
2023/09/09 01:57:02;;;;;;;10.75;5.10;;;18.30;99.90;;;;;;5004472;28;20030;-65
2023/09/09 01:59:27;;;;;;;7.00;4.72;;;18.10;99.90;;;;;;5004586;28;20057;-65
2023/09/09 02:01:53;;;;;;;6.97;4.72;;;18.00;99.90;;;;;;4998096;28;20058;-64
2023/09/09 02:04:18;;;;;;;10.20;4.70;;;17.80;99.90;;;;;;5003025;28;20661;-63
2023/09/09 02:06:46;;;;;;;7.68;5.20;;;17.70;99.90;;;;;;5001663;28;20408;-65
2023/09/09 02:09:12;;;;;;;5.55;4.03;;;17.70;99.90;;;;;;5004858;28;20026;-64
2023/09/09 02:11:37;;;;;;;7.22;4.65;;;17.60;99.90;;;;;;5005360;28;20033;-63
2023/09/09 02:14:03;;;;;;;6.30;4.95;;;17.50;99.90;;;;;;4999361;28;20026;-64
2023/09/09 02:16:29;;;;;;;6.28;4.80;;;17.50;99.90;;;;;;5000592;28;20038;-64
2023/09/09 02:18:54;;;;;;;7.20;5.28;;;17.40;99.90;;;;;;5007200;28;20479;-64
2023/09/09 02:21:20;;;;;;;6.85;4.90;;;17.40;99.90;;;;;;5009085;28;20052;-64
2023/09/09 02:23:46;;;;;;;6.55;4.78;;;17.30;99.90;;;;;;5008289;28;20053;-63
2023/09/09 02:26:11;;;;;;;6.65;4.80;;;17.20;99.90;;;;;;5013035;28;20034;-64
2023/09/09 02:28:37;;;;;;;8.95;5.22;;;17.20;99.90;;;;;;5005908;28;20026;-64
2023/09/09 02:31:03;;;;;;;8.07;4.95;;;17.20;99.90;;;;;;4994746;28;20046;-64
2023/09/09 02:33:28;;;;;;;7.90;5.28;;;17.20;99.90;;;;;;5006753;28;20480;-64
2023/09/09 02:35:54;;;;;;;8.75;5.28;;;17.20;99.90;;;;;;5007837;28;20116;-63
2023/09/09 02:38:19;;;;;;;9.55;5.25;;;17.10;99.90;;;;;;5000998;28;20026;-64
2023/09/09 02:40:45;;;;;;;7.30;5.50;;;17.00;99.90;;;;;;5004636;28;20037;-64
2023/09/09 02:43:11;;;;;;;7.55;5.15;;;17.00;99.90;;;;;;5013031;28;20026;-65
2023/09/09 02:45:37;;;;;;;10.50;5.38;;;16.90;99.90;;;;;;5007637;28;20139;-64
2023/09/09 02:48:03;;;;;;;7.82;5.05;;;16.90;99.90;;;;;;4999632;28;20041;-64
2023/09/09 02:50:29;;;;;;;9.07;6.03;;;16.80;99.90;;;;;;5003639;28;20461;-64
2023/09/09 02:52:54;;;;;;;10.13;6.55;;;16.80;99.90;;;;;;5004185;28;20034;-63
2023/09/09 02:55:20;;;;;;;8.43;5.88;;;16.80;99.90;;;;;;5010632;28;20101;-63
2023/09/09 02:57:49;;;;;;;8.88;6.07;;;16.90;99.90;;;;;;5012002;28;20014;-63
2023/09/09 03:00:15;;;;;;;9.27;5.82;;;16.90;99.90;;;;;;5005442;28;20046;-64
2023/09/09 03:02:42;;;;;;;10.70;6.10;;;16.90;99.90;;;;;;5009954;28;20026;-63
2023/09/09 03:05:08;;;;;;;6.88;5.13;;;16.90;99.90;;;;;;5007712;28;20102;-63
2023/09/09 03:07:34;;;;;;;7.40;5.25;;;16.80;99.90;;;;;;5000222;28;20057;-64
2023/09/09 03:09:59;;;;;;;7.07;5.30;;;16.60;99.90;;;;;;5005447;28;20061;-63
2023/09/09 03:12:25;;;;;;;8.25;5.60;;;16.60;99.90;;;;;;5010033;28;20109;-65
2023/09/09 03:14:51;;;;;;;12.05;5.65;;;16.50;99.90;;;;;;5006625;28;20034;-64
2023/09/09 03:17:17;;;;;;;8.50;5.40;;;16.70;99.90;;;;;;4999707;28;20038;-64
2023/09/09 03:19:43;;;;;;;7.53;5.35;;;16.70;99.90;;;;;;5023747;28;20022;-64
2023/09/09 03:22:09;;;;;;;9.07;6.30;;;16.80;99.90;;;;;;5002871;28;20038;-64
2023/09/09 03:24:34;;;;;;;7.75;5.25;;;16.70;99.90;;;;;;5006088;28;20041;-64
2023/09/09 03:27:00;;;;;;;15.18;5.68;;;16.70;99.90;;;;;;5010122;28;20038;-64
2023/09/09 03:29:25;;;;;;;7.95;5.32;;;16.70;99.90;;;;;;5003124;28;20022;-63
2023/09/09 03:31:51;;;;;;;9.00;5.43;;;16.70;99.90;;;;;;5008760;28;20128;-64
2023/09/09 03:34:17;;;;;;;5.93;4.70;;;16.60;99.90;;;;;;5000661;28;20700;-63
2023/09/09 03:36:42;;;;;;;8.07;5.25;;;16.60;99.90;;;;;;5007056;28;20105;-64
2023/09/09 03:39:08;;;;;;;9.05;5.88;;;16.50;99.90;;;;;;5004909;28;20108;-63
2023/09/09 03:41:34;;;;;;;10.30;5.22;;;16.60;99.90;;;;;;5003300;28;20083;-64
2023/09/09 03:44:00;;;;;;;11.18;6.53;;;16.50;99.90;;;;;;5008407;28;20507;-63
2023/09/09 03:46:26;;;;;;;7.93;5.32;;;16.50;99.90;;;;;;5009216;28;20025;-67
2023/09/09 03:48:51;;;;;;;7.75;5.35;;;16.50;99.90;;;;;;5010273;28;20032;-64
2023/09/09 03:51:17;;;;;;;7.80;5.15;;;16.40;99.90;;;;;;5010518;28;20040;-64
2023/09/09 03:53:43;;;;;;;9.90;6.32;;;16.50;99.90;;;;;;5011168;28;20033;-64
2023/09/09 03:56:08;;;;;;;9.75;5.45;;;16.40;99.90;;;;;;5007681;28;20022;-65
2023/09/09 03:58:37;;;;;;;7.60;5.28;;;16.40;99.90;;;;;;5008709;28;20133;-64
2023/09/09 04:01:10;;;;;;;9.13;5.82;;;16.30;99.90;;;;;;5011424;28;20030;-64
2023/09/09 04:03:37;;;;;;;7.78;5.75;;;16.30;99.90;;;;;;5010900;28;20109;-64
2023/09/09 04:06:06;;;;;;;10.93;6.00;;;16.30;99.90;;;;;;5010725;28;20038;-64
2023/09/09 04:08:32;;;;;;;7.95;5.65;;;16.20;99.90;;;;;;5008437;28;20041;-65
2023/09/09 04:10:58;;;;;;;10.55;5.45;;;16.20;99.90;;;;;;5007350;28;20140;-65
2023/09/09 04:13:23;;;;;;;7.00;5.55;;;16.30;99.90;;;;;;5006338;28;20102;-64
2023/09/09 04:15:49;;;;;;;9.38;5.60;;;16.30;99.90;;;;;;5008550;28;20042;-64
2023/09/09 04:18:15;;;;;;;10.52;5.57;;;16.30;99.90;;;;;;5005346;28;20054;-64
2023/09/09 04:20:40;;;;;;;9.50;5.95;;;16.30;99.90;;;;;;4999617;28;20036;-64
2023/09/09 04:23:06;;;;;;;10.82;5.28;;;16.30;99.90;;;;;;5009409;28;20123;-62
2023/09/09 04:25:31;;;;;;;8.25;5.45;;;16.30;99.90;;;;;;5006946;28;20026;-65
2023/09/09 04:27:57;;;;;;;8.02;5.72;;;16.30;99.90;;;;;;5002893;28;20044;-63
2023/09/09 04:30:23;;;;;;;7.93;5.15;;;16.20;99.90;;;;;;4999238;28;20381;-65
2023/09/09 04:32:48;;;;;;;9.05;5.82;;;16.20;99.90;;;;;;4999072;28;20026;-64
2023/09/09 04:35:14;;;;;;;9.50;5.80;;;16.10;99.90;;;;;;5000607;28;20068;-64
2023/09/09 04:37:39;;;;;;;7.35;5.25;;;16.10;99.90;;;;;;5005010;28;20017;-64
2023/09/09 04:40:06;;;;;;;7.80;5.90;;;16.00;99.90;;;;;;5012571;28;20101;-65
2023/09/09 04:42:33;;;;;;;8.85;5.57;;;16.00;99.90;;;;;;5005747;28;20541;-65
2023/09/09 04:44:59;;;;;;;9.30;5.35;;;16.00;99.90;;;;;;5013100;28;20127;-64
2023/09/09 04:47:24;;;;;;;9.32;5.55;;;16.00;99.90;;;;;;4999273;28;20083;-65
2023/09/09 04:49:50;;;;;;;8.13;5.63;;;15.90;99.90;;;;;;5001240;28;20062;-63
2023/09/09 04:52:15;;;;;;;9.50;5.63;;;15.90;99.90;;;;;;5001453;28;20033;-64
2023/09/09 04:54:42;;;;;;;10.07;5.40;;;15.90;99.90;;;;;;5005801;28;20083;-64
2023/09/09 04:57:08;;;;;;;7.97;4.78;;;15.90;99.90;;;;;;5009908;28;20014;-64
2023/09/09 04:59:34;;;;;;;8.40;5.93;;;15.90;99.90;;;;;;4999863;28;20042;-64
2023/09/09 05:02:00;;;;;;;7.70;5.82;;;16.00;99.90;;;;;;4999946;28;20022;-64
2023/09/09 05:04:26;;;;;;;11.57;5.97;;;16.00;99.90;;;;;;5003763;28;20065;-63
2023/09/09 05:06:53;;;;;;;9.45;6.10;;;16.00;99.90;;;;;;5010104;28;20414;-63
2023/09/09 05:09:19;;;;;;;13.10;5.18;;;16.10;99.90;;;;;;5001008;28;20030;-63
2023/09/09 05:11:45;;;;;;;10.95;5.00;;;16.10;99.90;;;;;;4999623;28;20037;-63
2023/09/09 05:14:10;;;;;;;6.70;4.95;;;16.20;99.90;;;;;;5004491;28;20343;-64
2023/09/09 05:16:37;;;;;;;8.70;5.72;;;16.20;99.90;;;;;;4999392;28;20116;-64
2023/09/09 05:19:03;;;;;;;8.07;5.22;;;16.30;99.90;;;;;;5001473;28;20485;-63
2023/09/09 05:21:29;;;;;;;7.95;5.43;;;16.20;99.90;;;;;;5002811;28;20060;-64
2023/09/09 05:23:54;;;;;;;8.80;5.60;;;16.20;99.90;;;;;;4999783;28;20077;-64
2023/09/09 05:26:20;;;;;;;8.48;5.85;;;16.10;99.90;;;;;;5002361;28;20045;-64
2023/09/09 05:28:46;;;;;;;9.48;5.30;;;16.10;99.90;;;;;;5008071;28;20030;-64
2023/09/09 05:31:13;;;;;;;8.63;5.80;;;16.10;99.90;;;;;;5005124;28;20025;-64
2023/09/09 05:33:39;;;;;;;8.73;5.78;;;16.10;99.90;;;;;;5002053;28;20022;-63
2023/09/09 05:36:05;;;;;;;7.20;5.65;;;16.20;99.90;;;;;;4999885;28;20088;-64
2023/09/09 05:38:30;;;;;;;7.78;4.85;;;16.20;99.90;;;;;;5003067;28;20068;-64
2023/09/09 05:40:56;;;;;;;8.45;5.60;;;16.30;99.90;;;;;;4995521;28;20022;-63
2023/09/09 05:43:21;;;;;;;7.40;5.43;;;16.40;99.90;;;;;;5002700;28;20014;-64
2023/09/09 05:45:47;;;;;;;10.57;5.40;;;16.40;99.90;;;;;;4994420;28;20451;-64
2023/09/09 05:48:13;;;;;;;11.57;5.18;;;16.50;99.90;;;;;;5001285;28;20052;-64
2023/09/09 05:50:38;;;;;;;6.93;5.35;;;16.60;99.90;;;;;;5006564;28;20033;-63
2023/09/09 05:53:04;;;;;;;7.72;5.00;;;16.70;99.90;;;;;;4996774;28;20647;-64
2023/09/09 05:55:30;;;;;;;17.60;6.65;;;16.70;99.90;;;;;;4999125;28;20068;-64
2023/09/09 05:57:55;;;;;;;7.28;5.00;;;16.90;99.90;;;;;;5014173;28;20041;-64
2023/09/09 06:00:21;;;;;;;12.00;5.47;;;17.00;99.90;;;;;;4995658;28;20120;-64
2023/09/09 06:02:47;;;;;;;8.25;5.22;;;17.10;99.90;;;;;;5003943;28;20061;-64
2023/09/09 06:05:14;;;;;;;6.68;4.80;;;17.40;99.90;;;;;;5002289;28;20429;-65
2023/09/09 06:07:40;;;;;;;6.35;4.60;;;17.90;99.90;;;;;;5009921;28;20022;-64
2023/09/09 06:10:07;;;;;;;10.13;4.90;;;18.40;99.90;;;;;;5000002;28;20058;-64
2023/09/09 06:12:33;;;;;;;7.47;4.97;;;18.90;99.90;;;;;;5000360;28;20030;-64
2023/09/09 06:14:59;;;;;;;9.00;3.92;;;19.20;99.90;;;;;;5007441;28;20049;-65
2023/09/09 06:17:24;;;;;;;7.20;4.93;;;19.40;99.90;;;;;;5002878;28;20037;-64
2023/09/09 06:19:50;;;;;;;6.45;4.13;;;19.40;99.90;;;;;;5008749;28;20406;-64
2023/09/09 06:22:15;;;;;;;10.80;4.53;;;19.40;99.90;;;;;;5008556;28;20493;-64
2023/09/09 06:24:41;;;;;;;9.77;3.92;;;19.40;99.90;;;;;;5005530;28;20030;-64
2023/09/09 06:27:07;;;;;;;12.00;4.55;;;19.40;99.90;;;;;;5012693;28;20028;-62
2023/09/09 06:29:32;;;;;;;6.05;4.25;;;19.40;99.90;;;;;;5009004;28;20103;-65
2023/09/09 06:31:58;;;;;;;5.65;3.63;;;19.40;99.90;;;;;;5004236;28;20026;-64
2023/09/09 06:34:24;;;;;;;6.65;4.32;;;19.50;99.90;;;;;;5005696;28;20032;-64
2023/09/09 06:36:50;;;;;;;10.68;4.72;;;19.50;99.90;;;;;;5008870;28;20034;-64
2023/09/09 06:39:16;;;;;;;5.35;3.78;;;19.50;99.90;;;;;;5010613;28;20022;-65
2023/09/09 06:41:41;;;;;;;10.70;4.60;;;19.50;99.90;;;;;;5005974;28;20117;-63
2023/09/09 06:44:07;;;;;;;6.13;4.20;;;19.60;99.90;;;;;;5011783;28;20120;-66
2023/09/09 06:46:32;;;;;;;7.85;3.92;;;19.70;99.90;;;;;;5005999;28;20033;-63
2023/09/09 06:48:58;;;;;;;8.93;4.28;;;19.90;99.90;;;;;;5001762;28;20037;-63
2023/09/09 06:51:24;;;;;;;5.25;3.97;;;20.00;99.90;;;;;;5009670;28;20105;-64
2023/09/09 06:53:49;;;;;;;5.88;4.32;;;20.20;99.90;;;;;;5010023;28;20030;-64
2023/09/09 06:56:15;;;;;;;10.05;4.38;;;20.80;99.90;;;;;;5002763;28;20036;-64
2023/09/09 06:58:40;;;;;;;4.55;3.47;;;21.90;99.90;;;;;;5006965;28;20022;-64
2023/09/09 07:01:06;;;;;;;6.30;3.40;;;23.20;99.90;;;;;;5008094;28;20019;-61
2023/09/09 07:03:32;;;;;;;9.30;3.15;;;24.80;99.90;;;;;;5004068;28;20029;-63
2023/09/09 07:06:00;;;;;;;4.18;2.63;;;25.90;98.90;;;;;;5025202;28;20037;-63
2023/09/09 07:08:27;;;;;;;4.75;3.20;;;27.40;97.60;;;;;;5005473;28;20470;-64
2023/09/09 07:10:53;;;;;;;6.32;3.38;;;28.00;94.80;;;;;;5007319;28;20030;-64
2023/09/09 07:13:22;;;;;;;7.72;3.10;;;28.60;93.00;;;;;;5011626;28;20092;-64
2023/09/09 07:15:54;;;;;;;5.28;3.28;;;28.70;92.50;;;;;;5007652;28;20044;-62
2023/09/09 07:18:21;;;;;;;8.23;3.40;;;28.90;91.10;;;;;;5009158;28;20041;-65
2023/09/09 07:20:48;;;;;;;6.07;3.25;;;29.50;91.60;;;;;;5006443;28;20057;-64
2023/09/09 07:23:17;;;;;;;7.32;3.70;;;30.10;89.10;;;;;;5000199;28;20022;-65
2023/09/09 07:25:43;;;;;;;5.15;3.55;;;29.70;88.40;;;;;;5004173;28;20023;-65
2023/09/09 07:28:09;;;;;;;5.10;3.03;;;29.70;89.20;;;;;;5009155;28;20031;-65
2023/09/09 07:30:35;;;;;;;5.95;2.92;;;29.90;87.80;;;;;;5001800;28;20479;-65
2023/09/09 07:33:01;;;;;;;3.92;3.10;;;30.20;87.40;;;;;;5008643;28;20030;-65
2023/09/09 07:35:27;;;;;;;5.90;3.03;;;30.10;87.50;;;;;;5009935;28;20038;-64
2023/09/09 07:37:52;;;;;;;10.05;3.45;;;30.70;84.50;;;;;;5005223;28;20033;-66
2023/09/09 07:40:18;;;;;;;5.47;3.60;;;30.70;86.60;;;;;;5002193;28;20096;-65
2023/09/09 07:42:43;;;;;;;5.97;3.78;;;31.20;84.00;;;;;;5008251;28;20025;-65
2023/09/09 07:45:09;;;;;;;4.63;3.30;;;31.70;79.90;;;;;;5003076;28;20097;-65
2023/09/09 07:47:35;;;;;;;4.30;2.92;;;31.50;82.40;;;;;;5003588;28;20461;-65
2023/09/09 07:50:01;;;;;;;3.83;3.13;;;31.40;82.10;;;;;;5005786;28;20180;-65
2023/09/09 07:52:26;;;;;;;3.53;3.10;;;32.10;81.90;;;;;;5005461;28;20026;-66
2023/09/09 07:54:52;;;;;;;8.10;3.10;;;32.10;80.20;;;;;;5000922;28;20108;-65
2023/09/09 07:57:18;;;;;;;22.90;3.50;;;31.80;80.50;;;;;;5002784;28;20387;-67
2023/09/09 07:59:43;;;;;;;3.42;3.00;;;31.60;82.10;;;;;;5000556;28;20026;-65
2023/09/09 08:02:09;;;;;;;6.90;3.53;;;31.20;82.10;;;;;;5000920;28;20391;-65
2023/09/09 08:04:35;;;;;;;5.07;3.15;;;31.10;81.90;;;;;;5001606;28;20029;-65
2023/09/09 08:07:00;;;;;;;3.83;3.00;;;31.30;83.10;;;;;;5008952;28;20506;-65
2023/09/09 08:09:26;;;;;;;6.18;3.95;;;31.20;82.70;;;;;;4996980;28;20034;-65
2023/09/09 08:11:52;;;;;;;5.15;3.63;;;32.00;82.20;;;;;;5003531;28;20049;-65
2023/09/09 08:14:18;;;;;;;5.85;3.30;;;32.20;80.50;;;;;;5006768;28;20388;-65
2023/09/09 08:16:44;;;;;;;4.82;3.50;;;31.70;79.60;;;;;;5005036;28;20030;-65
2023/09/09 08:19:09;;;;;;;6.20;3.55;;;31.10;80.00;;;;;;5007228;28;20029;-64
2023/09/09 08:21:35;;;;;;;4.47;3.30;;;31.00;80.70;;;;;;5002643;28;20034;-65
2023/09/09 08:24:01;;;;;;;6.15;3.63;;;30.90;81.80;;;;;;4985843;28;20048;-65
2023/09/09 08:26:30;;;;;;;9.02;3.22;;;31.00;81.70;;;;;;4993932;28;20019;-65
2023/09/09 08:28:56;;;;;;;6.70;3.83;;;31.20;81.90;;;;;;4996352;28;20108;-65
2023/09/09 08:31:22;;;;;;;6.78;3.10;;;32.60;80.00;;;;;;4995729;28;20109;-64
2023/09/09 08:33:47;;;;;;;3.72;3.20;;;31.70;80.90;;;;;;5013915;28;20120;-63
2023/09/09 08:36:15;;;;;;;7.45;3.80;;;32.60;79.30;;;;;;4994087;28;20027;-64
2023/09/09 08:38:40;;;;;;;5.90;3.20;;;32.60;79.60;;;;;;5004583;28;20054;-66
2023/09/09 08:41:33;;;;;;;10.27;3.67;;;31.60;79.10;;;;;;4998374;28;20046;-64
2023/09/09 08:44:41;;;;;;;6.63;3.70;;;31.20;81.10;;;;;;4994818;28;20073;-67
2023/09/09 08:47:07;;;;;;;5.47;3.67;;;31.20;81.90;;;;;;4992891;28;20074;-63
2023/09/09 08:49:35;;;;;;;5.10;3.08;;;32.00;80.10;;;;;;4997525;28;20022;-67
2023/09/09 08:52:02;;;;;;;4.63;3.30;;;31.50;81.90;;;;;;4994144;28;20109;-66
2023/09/09 08:54:28;;;;;;;4.75;3.50;;;32.10;81.30;;;;;;4994906;28;20038;-66
2023/09/09 08:56:56;;;;;;;5.88;3.53;;;31.70;81.70;;;;;;4992985;28;20034;-66
2023/09/09 08:59:23;;;;;;;3.95;3.22;;;31.70;81.40;;;;;;4995487;28;20034;-66
2023/09/09 09:01:50;;;;;;;5.90;3.67;;;31.90;82.00;;;;;;4993951;28;20034;-66
2023/09/09 09:04:18;;;;;;;12.93;4.03;;;31.60;81.90;;;;;;4996044;28;20030;-66
2023/09/09 09:06:47;;;;;;;4.45;3.75;;;31.30;82.10;;;;;;4993737;28;20137;-67
2023/09/09 09:09:12;;;;;;;8.68;3.90;;;31.70;83.00;;;;;;4994902;28;20077;-66
2023/09/09 09:11:38;;;;;;;4.55;3.25;;;31.70;81.70;;;;;;4996750;28;20108;-66
2023/09/09 09:14:08;;;;;;;5.32;3.72;;;31.70;82.20;;;;;;4995830;28;20029;-66
2023/09/09 09:16:40;;;;;;;6.38;3.95;;;31.80;82.40;;;;;;4993527;28;20208;-65
2023/09/09 09:19:13;;;;;;;5.35;3.65;;;31.80;80.90;;;;;;4994545;28;20038;-65
2023/09/09 09:21:39;;;;;;;4.75;3.45;;;31.80;81.60;;;;;;4995976;28;20022;-66
2023/09/09 09:24:05;;;;;;;7.30;4.05;;;32.20;79.50;;;;;;4987486;28;20061;-66
2023/09/09 09:26:30;;;;;;;6.88;3.70;;;31.80;79.80;;;;;;4996531;28;20061;-66
2023/09/09 09:28:57;;;;;;;11.90;3.90;;;32.50;80.40;;;;;;4995933;28;20038;-66
2023/09/09 09:31:23;;;;;;;8.00;3.90;;;31.80;78.90;;;;;;4995934;28;20049;-66
2023/09/09 09:33:56;;;;;;;4.63;3.78;;;31.70;81.10;;;;;;4993378;28;20092;-65
2023/09/09 09:36:23;;;;;;;5.43;3.70;;;31.60;80.00;;;;;;4997879;28;20041;-65
2023/09/09 09:38:49;;;;;;;9.35;3.78;;;32.20;80.10;;;;;;4996701;28;20112;-65
2023/09/09 09:41:16;;;;;;;6.30;4.18;;;32.40;80.10;;;;;;4994823;28;20059;-65
2023/09/09 09:43:42;;;;;;;5.50;3.28;;;32.50;81.60;;;;;;4996732;28;20037;-65
2023/09/09 09:46:21;;;;;;;8.73;3.70;;;32.00;80.60;;;;;;4995550;28;20029;-65
2023/09/09 09:48:48;;;;;;;6.50;4.05;;;31.90;84.20;;;;;;4994656;28;20408;-65
2023/09/09 09:51:14;;;;;;;5.22;4.00;;;31.70;81.80;;;;;;4995864;28;20026;-64
2023/09/09 09:53:49;;;;;;;5.95;4.13;;;31.90;83.10;;;;;;4996307;28;20108;-65
2023/09/09 09:56:18;;;;;;;7.38;4.72;;;31.90;84.30;;;;;;4991793;28;20117;-65
2023/09/09 09:58:45;;;;;;;5.28;4.03;;;31.40;83.40;;;;;;4993388;28;20042;-65
2023/09/09 10:01:12;;;;;;;6.15;4.30;;;31.60;84.30;;;;;;4994171;28;20495;-64
2023/09/09 10:03:46;;;;;;;10.80;3.92;;;31.10;84.70;;;;;;4994196;28;20033;-64
2023/09/09 10:06:16;;;;;;;6.80;4.82;;;31.00;83.80;;;;;;4993972;28;20038;-64
2023/09/09 10:08:46;;;;;;;16.60;4.93;;;30.90;84.90;;;;;;4993682;28;20026;-64
2023/09/09 10:11:17;;;;;;;6.90;3.80;;;30.60;87.30;;;;;;4993876;28;20038;-64
2023/09/09 10:13:53;;;;;;;4.53;3.05;;;30.90;87.20;;;;;;4993337;28;20030;-64
2023/09/09 10:16:21;;;;;;;8.48;4.28;;;30.90;87.60;;;;;;4994527;28;20681;-65
2023/09/09 10:18:49;;;;;;;7.40;4.07;;;30.90;88.00;;;;;;4993146;28;20541;-64
2023/09/09 10:21:16;;;;;;;8.68;3.88;;;30.70;87.50;;;;;;4993610;28;20031;-64
2023/09/09 10:23:45;;;;;;;7.90;3.75;;;30.50;87.60;;;;;;4983595;28;20061;-64
2023/09/09 10:26:11;;;;;;;11.20;4.10;;;30.70;86.60;;;;;;4994646;28;20028;-64
2023/09/09 10:28:38;;;;;;;6.28;3.85;;;30.70;86.80;;;;;;4996115;28;20884;-64
2023/09/09 10:31:05;;;;;;;5.15;3.53;;;30.70;88.30;;;;;;5007723;28;20030;-64
2023/09/09 10:33:31;;;;;;;9.55;3.97;;;30.80;88.90;;;;;;4992244;28;20041;-65
2023/09/09 10:35:58;;;;;;;11.15;4.43;;;30.50;89.10;;;;;;4994031;28;20057;-65
2023/09/09 10:38:25;;;;;;;5.10;3.83;;;30.10;89.20;;;;;;4989127;28;20028;-65
2023/09/09 10:40:52;;;;;;;8.45;4.13;;;30.30;90.10;;;;;;4991867;28;20046;-64
2023/09/09 10:43:17;;;;;;;11.15;3.72;;;30.10;89.00;;;;;;4997477;28;20109;-65
2023/09/09 10:45:44;;;;;;;7.05;3.92;;;30.20;89.90;;;;;;4996200;28;20113;-65
2023/09/09 10:48:11;;;;;;;5.70;3.67;;;30.10;89.60;;;;;;4992984;28;20041;-65
2023/09/09 10:50:49;;;;;;;10.23;3.92;;;30.00;90.60;;;;;;4991832;28;20026;-65
2023/09/09 10:53:22;;;;;;;7.32;4.32;;;30.00;89.60;;;;;;4993034;28;20253;-65
2023/09/09 10:55:49;;;;;;;7.68;3.72;;;29.90;91.00;;;;;;4993598;28;20037;-62
2023/09/09 10:58:16;;;;;;;6.25;4.43;;;29.90;92.90;;;;;;4996384;28;20045;-65
2023/09/09 11:00:47;;;;;;;6.95;4.25;;;29.60;90.90;;;;;;4999144;28;20041;-65
2023/09/09 11:03:22;;;;;;;11.38;4.03;;;29.40;91.90;;;;;;4997172;28;20026;-65
2023/09/09 11:06:05;;;;;;;9.52;4.35;;;29.70;91.30;;;;;;4997017;28;20034;-65
2023/09/09 11:08:40;;;;;;;7.43;4.38;;;29.80;92.30;;;;;;5007865;28;20206;-64
2023/09/09 11:11:13;;;;;;;5.68;4.60;;;29.80;90.80;;;;;;4995568;28;20443;-64
2023/09/09 11:13:40;;;;;;;6.68;3.83;;;29.80;91.40;;;;;;4998261;28;20395;-65
2023/09/09 11:16:06;;;;;;;9.23;3.55;;;29.90;91.80;;;;;;4997541;28;20093;-65
2023/09/09 11:18:35;;;;;;;10.77;4.15;;;29.90;91.20;;;;;;4997043;28;20026;-66
2023/09/09 11:21:02;;;;;;;8.43;3.80;;;29.80;91.40;;;;;;4999051;28;20077;-65
2023/09/09 11:23:28;;;;;;;6.55;4.38;;;29.70;91.50;;;;;;4998388;28;20048;-65
2023/09/09 11:25:56;;;;;;;9.55;3.95;;;29.70;91.70;;;;;;4989291;28;20054;-65
2023/09/09 11:28:23;;;;;;;8.15;4.00;;;29.60;92.50;;;;;;4996849;28;20034;-64
2023/09/09 11:30:48;;;;;;;7.15;3.75;;;29.70;92.00;;;;;;4996813;28;20044;-66
2023/09/09 11:33:24;;;;;;;11.93;4.45;;;29.60;91.80;;;;;;4997537;28;20435;-65
2023/09/09 11:35:49;;;;;;;7.60;3.88;;;29.60;93.40;;;;;;4998002;28;20098;-65
2023/09/09 11:38:15;;;;;;;5.63;4.35;;;29.70;93.00;;;;;;4995299;28;20105;-65
2023/09/09 11:40:41;;;;;;;9.90;4.88;;;29.80;92.00;;;;;;4996253;28;20054;-65
2023/09/09 11:43:10;;;;;;;8.93;4.10;;;29.60;92.30;;;;;;5010764;28;20045;-65
2023/09/09 11:45:36;;;;;;;7.95;4.28;;;29.70;93.20;;;;;;5000573;28;20466;-65
2023/09/09 11:48:02;;;;;;;6.30;4.25;;;29.60;92.60;;;;;;4995897;28;20038;-65
2023/09/09 11:50:45;;;;;;;16.25;3.92;;;29.50;92.40;;;;;;4998295;28;20038;-64
2023/09/09 11:53:12;;;;;;;5.78;3.97;;;29.50;93.30;;;;;;5001318;28;20033;-64
2023/09/09 11:55:38;;;;;;;17.90;3.75;;;29.40;92.40;;;;;;4994996;28;20361;-64
2023/09/09 11:58:05;;;;;;;10.35;4.43;;;29.40;93.00;;;;;;4997221;28;20399;-64
2023/09/09 12:00:30;;;;;;;10.30;4.30;;;29.50;93.90;;;;;;4994568;28;20088;-64
2023/09/09 12:02:56;;;;;;;10.85;4.45;;;29.60;92.30;;;;;;4996341;28;20454;-64
2023/09/09 12:05:30;;;;;;;11.05;3.70;;;29.70;92.90;;;;;;4996275;28;20603;-64
2023/09/09 12:08:01;;;;;;;8.38;3.67;;;29.70;92.80;;;;;;4997455;28;20128;-64
2023/09/09 12:10:35;;;;;;;7.80;4.43;;;29.70;93.30;;;;;;4998027;28;20487;-65
2023/09/09 12:13:00;;;;;;;11.65;4.00;;;29.50;93.40;;;;;;4997231;28;20092;-65
2023/09/09 12:15:27;;;;;;;11.23;4.55;;;29.50;93.20;;;;;;4998191;28;20049;-64
2023/09/09 12:17:52;;;;;;;8.52;4.00;;;29.50;93.00;;;;;;4999938;28;20026;-66
2023/09/09 12:20:18;;;;;;;9.95;4.25;;;29.50;92.70;;;;;;4994609;28;20018;-65
2023/09/09 12:22:47;;;;;;;8.88;4.72;;;29.50;93.30;;;;;;4997510;28;20025;-65
2023/09/09 12:25:35;;;;;;;11.63;3.75;;;29.40;94.20;;;;;;4987002;28;20018;-64
2023/09/09 12:28:01;;;;;;;13.90;4.40;;;29.50;92.20;;;;;;4997571;28;20878;-65
2023/09/09 12:30:39;;;;;;;9.05;4.30;;;29.30;93.40;;;;;;4988813;28;20038;-65
2023/09/09 12:33:14;;;;;;;13.48;4.03;;;29.20;92.90;;;;;;4996476;28;20776;-65
2023/09/09 12:35:44;;;;;;;9.43;4.35;;;29.10;93.50;;;;;;4994366;28;20038;-66
2023/09/09 12:38:10;;;;;;;12.07;4.25;;;29.00;93.50;;;;;;4992919;28;20503;-66
2023/09/09 12:40:47;;;;;;;13.00;5.97;;;29.00;92.70;;;;;;4991452;28;20148;-65
2023/09/09 12:43:14;;;;;;;10.45;4.70;;;29.10;93.70;;;;;;4995003;28;20092;-65
2023/09/09 12:45:49;;;;;;;11.45;4.60;;;29.00;92.20;;;;;;4993741;28;20396;-65